Time;durP1;ratioP1;P1;durP2;ratioP2;P2;SDS_P1;SDS_P2;PMS_P1;PMS_P2;Temp;Humidity;BMP_temperature;BMP_pressure;BME280_temperature;BME280_humidity;BME280_pressure;Samples;Min_cycle;Max_cycle;Signal;HPM_P1;HPM_P2
2024/01/28 00:01:19;;;;;;;;;;;;;;;26.99;38.19;95628.59;5075734;28;7174;-38
2024/01/28 00:03:45;;;;;;;;;;;;;;;27.01;38.03;95628.13;5044613;28;7251;-38
2024/01/28 00:06:18;;;;;;;;;;;;;;;27.01;37.86;95625.38;5080999;28;9485;-38
2024/01/28 00:08:47;;;;;;;;;;;;;;;27.01;38.42;95630.88;5067013;28;9073;-38
2024/01/28 00:11:16;;;;;;;;;;;;;;;27.01;38.42;95620.59;5056755;28;7327;-38
2024/01/28 00:13:42;;;;;;;;;;;;;;;27.00;38.17;95619.09;5074960;28;7259;-38
2024/01/28 00:16:16;;;;;;;;;;;;;;;26.98;37.92;95620.81;5072554;28;7224;-38
2024/01/28 00:18:43;;;;;;;;;;;;;;;26.99;37.96;95622.34;5059492;28;7378;-38
2024/01/28 00:21:14;;;;;;;;;;;;;;;26.98;37.95;95610.53;5045103;28;7112;-38
2024/01/28 00:23:40;;;;;;;;;;;;;;;26.98;37.83;95616.06;5067199;28;8628;-38
2024/01/28 00:26:09;;;;;;;;;;;;;;;26.98;37.75;95612.53;5073699;28;7212;-38
2024/01/28 00:28:37;;;;;;;;;;;;;;;26.96;37.95;95606.75;5070958;28;7810;-38
2024/01/28 00:31:09;;;;;;;;;;;;;;;26.96;37.58;95607.50;5069720;28;7037;-38
2024/01/28 00:33:34;;;;;;;;;;;;;;;26.97;37.84;95614.53;5049797;28;7088;-38
2024/01/28 00:36:03;;;;;;;;;;;;;;;26.99;37.41;95608.53;5068546;28;7016;-38
2024/01/28 00:38:31;;;;;;;;;;;;;;;26.95;37.99;95608.75;5053207;28;9022;-38
2024/01/28 00:41:07;;;;;;;;;;;;;;;26.97;37.91;95611.03;5072454;28;7263;-38
2024/01/28 00:43:35;;;;;;;;;;;;;;;26.95;37.82;95610.75;5063769;28;7321;-38
2024/01/28 00:46:06;;;;;;;;;;;;;;;26.92;37.85;95595.94;5058315;28;7184;-38
2024/01/28 00:48:41;;;;;;;;;;;;;;;26.95;37.61;95600.47;5056814;28;9080;-38
2024/01/28 00:51:08;;;;;;;;;;;;;;;26.96;38.09;95593.69;5076692;28;7191;-38
2024/01/28 00:53:34;;;;;;;;;;;;;;;26.96;38.04;95590.94;5064406;28;7045;-39
2024/01/28 00:56:13;;;;;;;;;;;;;;;26.94;37.45;95596.19;5091317;28;9137;-38
2024/01/28 00:58:39;;;;;;;;;;;;;;;26.96;37.74;95596.47;5062706;28;7669;-38
2024/01/28 01:01:04;;;;;;;;;;;;;;;26.96;37.81;95590.19;5052890;28;9229;-38
2024/01/28 01:03:31;;;;;;;;;;;;;;;26.97;37.73;95591.72;5063124;28;9629;-38
2024/01/28 01:06:06;;;;;;;;;;;;;;;26.94;37.63;95582.41;5058589;28;7071;-38
2024/01/28 01:08:33;;;;;;;;;;;;;;;26.94;37.50;95582.41;5044557;28;7598;-38
2024/01/28 01:11:03;;;;;;;;;;;;;;;26.92;37.67;95584.88;5043449;28;7927;-38
2024/01/28 01:13:35;;;;;;;;;;;;;;;26.90;38.15;95581.88;5067532;28;9127;-38
2024/01/28 01:16:01;;;;;;;;;;;;;;;26.89;37.83;95581.09;5061312;28;9442;-37
2024/01/28 01:18:33;;;;;;;;;;;;;;;26.90;37.76;95581.88;5077327;28;7241;-38
2024/01/28 01:21:03;;;;;;;;;;;;;;;26.91;37.46;95588.88;5058809;28;7142;-39
2024/01/28 01:23:35;;;;;;;;;;;;;;;26.88;37.83;95589.88;5055779;28;7684;-38
2024/01/28 01:26:11;;;;;;;;;;;;;;;26.88;37.81;95593.38;5058833;28;9139;-38
2024/01/28 01:28:39;;;;;;;;;;;;;;;26.88;38.05;95595.41;5053276;28;7244;-39
2024/01/28 01:31:06;;;;;;;;;;;;;;;26.88;37.83;95598.16;5078707;28;7178;-38
2024/01/28 01:33:35;;;;;;;;;;;;;;;26.88;37.86;95600.94;5039064;28;8860;-38
2024/01/28 01:36:02;;;;;;;;;;;;;;;26.87;37.94;95599.41;5056668;28;7230;-37
2024/01/28 01:38:30;;;;;;;;;;;;;;;26.86;37.86;95604.16;5063150;28;7237;-38
2024/01/28 01:40:59;;;;;;;;;;;;;;;26.86;37.43;95598.63;5056929;28;7335;-38
2024/01/28 01:43:32;;;;;;;;;;;;;;;26.85;37.98;95601.91;5047051;28;7195;-38
2024/01/28 01:46:33;;;;;;;;;;;;;;;26.85;37.57;95601.91;5052610;28;7891;-37
2024/01/28 01:49:10;;;;;;;;;;;;;;;26.82;37.80;95608.38;4957896;28;9067;-39
2024/01/28 01:51:39;;;;;;;;;;;;;;;26.83;37.84;95596.13;4994556;28;7450;-38
2024/01/28 01:54:36;;;;;;;;;;;;;;;26.83;37.84;95612.69;4979186;28;7078;-38
2024/01/28 01:57:03;;;;;;;;;;;;;;;26.82;37.70;95594.59;4935486;29;8955;-38
2024/01/28 01:59:30;;;;;;;;;;;;;;;26.82;37.78;95602.88;4914664;29;7352;-38
2024/01/28 02:01:59;;;;;;;;;;;;;;;26.79;37.71;95601.09;4918661;29;9302;-38
2024/01/28 02:04:27;;;;;;;;;;;;;;;26.83;37.80;95604.41;4932493;29;7153;-38
2024/01/28 02:06:55;;;;;;;;;;;;;;;26.80;38.01;95605.34;4919943;29;9121;-38
2024/01/28 02:09:38;;;;;;;;;;;;;;;26.81;37.57;95601.38;4930980;29;7287;-39
2024/01/28 02:12:05;;;;;;;;;;;;;;;26.83;37.97;95601.63;4934858;29;9228;-56
2024/01/28 02:14:41;;;;;;;;;;;;;;;26.80;37.70;95606.13;4917389;29;8186;-56
2024/01/28 02:17:23;;;;;;;;;;;;;;;26.81;38.07;95606.88;4913534;29;7196;-56
2024/01/28 02:19:53;;;;;;;;;;;;;;;26.80;37.77;95594.31;4906656;29;8821;-56
2024/01/28 02:22:45;;;;;;;;;;;;;;;26.79;37.71;95598.34;4905470;29;7014;-56
2024/01/28 02:25:22;;;;;;;;;;;;;;;26.79;37.71;95592.81;4966841;28;7244;-56
2024/01/28 02:27:50;;;;;;;;;;;;;;;26.77;37.50;95587.03;4958399;28;9399;-56
2024/01/28 02:30:25;;;;;;;;;;;;;;;26.79;37.59;95592.81;4973576;28;7288;-56
2024/01/28 02:32:52;;;;;;;;;;;;;;;26.80;37.98;95588.78;4992432;28;8972;-56
2024/01/28 02:35:31;;;;;;;;;;;;;;;26.79;37.30;95587.31;5063935;28;7198;-56
2024/01/28 02:38:11;;;;;;;;;;;;;;;26.77;37.61;95587.03;5059429;28;9427;-56
2024/01/28 02:40:55;;;;;;;;;;;;;;;26.79;37.21;95581.78;5057017;28;7409;-56
2024/01/28 02:44:02;;;;;;;;;;;;;;;26.77;37.53;95584.28;5063581;28;6998;-56
2024/01/28 02:47:03;;;;;;;;;;;;;;;26.78;37.83;95585.78;5019017;28;7262;-56
2024/01/28 02:49:29;;;;;;;;;;;;;;;26.74;37.79;95585.25;5030196;28;7064;-57
2024/01/28 02:52:25;;;;;;;;;;;;;;;26.75;37.61;95590.25;5046390;28;9022;-56
2024/01/28 02:54:54;;;;;;;;;;;;;;;26.75;37.69;95589.53;4929624;29;9464;-56
2024/01/28 02:57:24;;;;;;;;;;;;;;;26.75;38.09;95587.50;4925430;29;8790;-56
2024/01/28 02:59:50;;;;;;;;;;;;;;;26.75;37.80;95587.50;4926482;29;7070;-56
2024/01/28 03:02:17;;;;;;;;;;;;;;;26.76;37.72;95585.50;4912124;29;7234;-56
2024/01/28 03:04:43;;;;;;;;;;;;;;;26.74;37.72;95588.00;4910764;29;9456;-56
2024/01/28 03:07:19;;;;;;;;;;;;;;;26.75;37.56;95586.78;4919039;29;7097;-56
2024/01/28 03:09:57;;;;;;;;;;;;;;;26.73;37.75;95584.47;4921030;29;7179;-56
2024/01/28 03:12:25;;;;;;;;;;;;;;;26.75;37.84;95587.50;4926349;29;6993;-56
2024/01/28 03:15:07;;;;;;;;;;;;;;;26.74;37.86;95588.78;4909597;28;9071;-56
2024/01/28 03:17:34;;;;;;;;;;;;;;;26.74;37.43;95585.25;4948070;28;7482;-56
2024/01/28 03:20:02;;;;;;;;;;;;;;;26.74;37.72;95585.25;4972587;28;6985;-39
2024/01/28 03:22:42;;;;;;;;;;;;;;;26.74;37.66;95579.72;4937759;29;7239;-38
2024/01/28 03:25:38;;;;;;;;;;;;;;;26.73;37.78;95578.97;4950349;28;8230;-39
2024/01/28 03:28:14;;;;;;;;;;;;;;;26.74;37.59;95588.00;4956641;28;7251;-41
2024/01/28 03:30:46;;;;;;;;;;;;;;;26.74;37.71;95588.00;4975860;28;7025;-41
2024/01/28 03:33:20;;;;;;;;;;;;;;;26.72;38.09;95588.47;5056029;28;7448;-39
2024/01/28 03:35:47;;;;;;;;;;;;;;;26.73;37.77;95583.75;5051826;28;9047;-41
2024/01/28 03:38:14;;;;;;;;;;;;;;;26.73;37.91;95578.22;5054441;28;7072;-39
2024/01/28 03:40:48;;;;;;;;;;;;;;;26.72;37.60;95576.66;5051598;28;7243;-39
2024/01/28 03:43:59;;;;;;;;;;;;;;;26.73;37.80;95581.00;5049844;28;8819;-40
2024/01/28 03:46:25;;;;;;;;;;;;;;;26.71;37.87;95586.19;5058284;28;7273;-39
2024/01/28 03:48:51;;;;;;;;;;;;;;;26.69;37.76;95581.16;5080782;28;9119;-38
2024/01/28 03:52:07;;;;;;;;;;;;;;;26.71;37.72;95586.19;5064012;28;7378;-39
2024/01/28 03:54:33;;;;;;;;;;;;;;;26.72;37.48;95582.19;5054437;28;7018;-40
2024/01/28 03:56:59;;;;;;;;;;;;;;;26.72;37.70;95582.19;5066748;28;7864;-41
2024/01/28 03:59:31;;;;;;;;;;;;;;;26.70;37.75;95585.44;5077930;28;8807;-40
2024/01/28 04:01:57;;;;;;;;;;;;;;;26.71;37.34;95583.44;5065293;28;8747;-39
2024/01/28 04:04:23;;;;;;;;;;;;;;;26.71;37.98;95592.47;5036212;28;7289;-38
2024/01/28 04:07:02;;;;;;;;;;;;;;;26.71;37.72;95586.19;5051103;28;7811;-39
2024/01/28 04:10:01;;;;;;;;;;;;;;;26.70;37.97;95579.94;5054881;28;9060;-39
2024/01/28 04:12:30;;;;;;;;;;;;;;;26.69;37.46;95583.16;5065145;28;7303;-39
2024/01/28 04:15:00;;;;;;;;;;;;;;;26.70;37.58;95579.94;5064788;28;6915;-39
2024/01/28 04:17:37;;;;;;;;;;;;;;;26.67;37.66;95574.63;5070621;28;7037;-39
2024/01/28 04:20:08;;;;;;;;;;;;;;;26.68;37.79;95584.41;5057585;28;8804;-39
2024/01/28 04:22:38;;;;;;;;;;;;;;;26.67;37.30;95580.91;5065835;28;7199;-39
2024/01/28 04:25:06;;;;;;;;;;;;;;;26.67;37.68;95580.13;5067579;28;7353;-39
2024/01/28 04:27:32;;;;;;;;;;;;;;;26.67;37.62;95580.13;5060376;28;9062;-39
2024/01/28 04:30:08;;;;;;;;;;;;;;;26.68;37.60;95584.41;5053212;28;7176;-38
2024/01/28 04:32:38;;;;;;;;;;;;;;;26.66;37.14;95578.63;5070158;28;8069;-38
2024/01/28 04:35:10;;;;;;;;;;;;;;;26.66;37.68;95581.41;5060430;28;7052;-40
2024/01/28 04:37:36;;;;;;;;;;;;;;;26.67;37.41;95586.41;5047759;28;6998;-38
2024/01/28 04:40:02;;;;;;;;;;;;;;;26.69;37.71;95588.69;5054772;28;8694;-41
2024/01/28 04:42:32;;;;;;;;;;;;;;;26.67;37.76;95585.66;5045718;28;7052;-38
2024/01/28 04:44:58;;;;;;;;;;;;;;;26.65;37.45;95583.38;5042523;28;8710;-39
2024/01/28 04:47:27;;;;;;;;;;;;;;;26.67;37.86;95583.66;5045156;28;7637;-41
2024/01/28 04:50:21;;;;;;;;;;;;;;;26.67;38.01;95585.66;5053065;28;6995;-39
2024/01/28 04:52:58;;;;;;;;;;;;;;;26.64;37.59;95594.94;4988337;28;7246;-39
2024/01/28 04:55:24;;;;;;;;;;;;;;;26.65;38.19;95591.66;4994442;28;7453;-41
2024/01/28 04:58:06;;;;;;;;;;;;;;;26.66;37.72;95597.94;5007826;28;7300;-39
2024/01/28 05:00:36;;;;;;;;;;;;;;;26.66;37.79;95606.22;4973155;28;8858;-39
2024/01/28 05:03:02;;;;;;;;;;;;;;;26.67;37.73;95602.22;4998518;28;7279;-39
2024/01/28 05:05:37;;;;;;;;;;;;;;;26.66;37.77;95611.75;5002195;28;7267;-39
2024/01/28 05:08:17;;;;;;;;;;;;;;;26.66;37.36;95617.28;5013796;28;8941;-39
2024/01/28 05:11:14;;;;;;;;;;;;;;;26.65;37.50;95611.00;4993761;28;7466;-39
2024/01/28 05:13:41;;;;;;;;;;;;;;;26.66;37.63;95617.28;4936530;28;7226;-39
2024/01/28 05:16:25;;;;;;;;;;;;;;;26.63;37.97;95613.47;4927517;28;7254;-39
2024/01/28 05:19:47;;;;;;;;;;;;;;;26.64;37.24;95617.00;4947989;28;9092;-39
2024/01/28 05:22:45;;;;;;;;;;;;;;;26.64;37.54;95617.00;4865455;29;7349;-39
2024/01/28 05:25:32;;;;;;;;;;;;;;;26.63;37.70;95612.72;4877788;29;8769;-39
2024/01/28 05:28:03;;;;;;;;;;;;;;;26.62;37.48;95605.69;4861731;29;8820;-38
2024/01/28 05:30:40;;;;;;;;;;;;;;;26.63;37.52;95618.25;4878675;29;8778;-39
2024/01/28 05:33:37;;;;;;;;;;;;;;;26.64;37.42;95617.00;4911867;29;9549;-39
2024/01/28 05:36:22;;;;;;;;;;;;;;;26.65;37.99;95615.75;4897331;29;7274;-39
2024/01/28 05:39:21;;;;;;;;;;;;;;;26.66;37.39;95611.75;4898450;29;7201;-39
2024/01/28 05:42:46;;;;;;;;;;;;;;;26.65;37.85;95619.28;4888896;29;8739;-39
2024/01/28 05:45:22;;;;;;;;;;;;;;;26.65;37.80;95621.25;4895442;29;7369;-38
2024/01/28 05:48:02;;;;;;;;;;;;;;;26.64;36.89;95619.75;4897786;29;9144;-39
2024/01/28 05:51:13;;;;;;;;;;;;;;;26.64;37.70;95619.75;4934922;28;6959;-38
2024/01/28 05:53:41;;;;;;;;;;;;;;;26.64;37.53;95617.00;4938868;28;9308;-38
2024/01/28 05:56:06;;;;;;;;;;;;;;;26.60;37.74;95619.22;4962170;28;7244;-39
2024/01/28 05:58:33;;;;;;;;;;;;;;;26.61;37.18;95617.97;4999621;28;7176;-38
2024/01/28 06:01:05;;;;;;;;;;;;;;;26.59;37.63;95618.47;4990724;28;7671;-38
2024/01/28 06:03:33;;;;;;;;;;;;;;;26.61;37.17;95623.50;5001869;28;7297;-39
2024/01/28 06:06:09;;;;;;;;;;;;;;;26.64;37.30;95630.81;5012730;28;6991;-38
2024/01/28 06:08:45;;;;;;;;;;;;;;;26.61;37.01;95629.78;5018030;28;7153;-40
2024/01/28 06:11:12;;;;;;;;;;;;;;;26.57;37.30;95625.72;5011804;28;7846;-40
2024/01/28 06:13:39;;;;;;;;;;;;;;;26.58;37.67;95624.44;5030449;28;7949;-39
2024/01/28 06:16:27;;;;;;;;;;;;;;;26.58;37.56;95616.94;5044687;28;7013;-40
2024/01/28 06:19:05;;;;;;;;;;;;;;;26.57;37.57;95614.69;5085593;28;7252;-39
2024/01/28 06:21:31;;;;;;;;;;;;;;;26.58;37.50;95621.69;5042583;28;7260;-39
2024/01/28 06:23:57;;;;;;;;;;;;;;;26.60;37.10;95630.28;5046669;28;9537;-39
2024/01/28 06:26:50;;;;;;;;;;;;;;;26.59;37.51;95617.72;5068997;28;7195;-38
2024/01/28 06:29:22;;;;;;;;;;;;;;;26.58;37.23;95619.69;5054459;28;7002;-38
2024/01/28 06:31:51;;;;;;;;;;;;;;;26.57;37.12;95620.19;5072460;28;7326;-40
2024/01/28 06:34:20;;;;;;;;;;;;;;;26.58;37.17;95621.69;5047589;28;6993;-39
2024/01/28 06:36:56;;;;;;;;;;;;;;;26.56;37.46;95618.66;5062005;28;6995;-39
2024/01/28 06:39:26;;;;;;;;;;;;;;;26.56;37.22;95618.66;5041984;28;6993;-38
2024/01/28 06:41:53;;;;;;;;;;;;;;;26.58;37.24;95610.66;5065533;28;7070;-38
2024/01/28 06:44:21;;;;;;;;;;;;;;;26.59;37.52;95620.47;5064257;28;7201;-39
2024/01/28 06:46:48;;;;;;;;;;;;;;;26.58;37.19;95610.66;5050763;28;7714;-39
2024/01/28 06:49:17;;;;;;;;;;;;;;;26.59;38.06;95617.72;5048844;28;7326;-39
2024/01/28 06:51:53;;;;;;;;;;;;;;;26.58;37.64;95616.19;5061711;28;9041;-39
2024/01/28 06:54:25;;;;;;;;;;;;;;;26.58;38.07;95610.66;5041157;28;8253;-40
2024/01/28 06:56:52;;;;;;;;;;;;;;;26.59;38.25;95618.47;5052509;28;7262;-38
2024/01/28 06:59:19;;;;;;;;;;;;;;;26.60;37.49;95614.44;5090379;28;7019;-38
2024/01/28 07:01:45;;;;;;;;;;;;;;;26.59;38.02;95617.72;5064398;28;7257;-38
2024/01/28 07:04:11;;;;;;;;;;;;;;;26.61;37.88;95623.50;5069343;28;9087;-39
2024/01/28 07:06:39;;;;;;;;;;;;;;;26.58;37.79;95610.66;5040533;28;7200;-38
2024/01/28 07:09:07;;;;;;;;;;;;;;;26.60;37.58;95619.22;5052388;28;8729;-41
2024/01/28 07:11:33;;;;;;;;;;;;;;;26.63;37.70;95630.03;5057906;28;7066;-37
2024/01/28 07:13:59;;;;;;;;;;;;;;;26.64;37.20;95625.28;5066743;28;9033;-37
2024/01/28 07:16:30;;;;;;;;;;;;;;;26.59;37.25;95624.00;5054676;28;7059;-37
2024/01/28 07:18:55;;;;;;;;;;;;;;;26.59;36.87;95628.75;5067122;28;9464;-37
2024/01/28 07:21:22;;;;;;;;;;;;;;;26.59;37.40;95623.22;5053433;28;7404;-56
2024/01/28 07:23:48;;;;;;;;;;;;;;;26.57;37.00;95626.47;5061546;28;7146;-57
2024/01/28 07:26:25;;;;;;;;;;;;;;;26.56;37.29;95624.94;5053766;28;7038;-56
2024/01/28 07:28:52;;;;;;;;;;;;;;;26.55;37.42;95623.44;5058719;28;6994;-56
2024/01/28 07:31:27;;;;;;;;;;;;;;;26.54;36.99;95610.88;5079929;28;7012;-56
2024/01/28 07:34:27;;;;;;;;;;;;;;;26.51;37.08;95619.41;5048885;28;9169;-56
2024/01/28 07:36:56;;;;;;;;;;;;;;;26.52;37.72;95612.63;5046165;28;7571;-56
2024/01/28 07:39:55;;;;;;;;;;;;;;;26.48;37.95;95609.31;5040055;28;7751;-57
2024/01/28 07:42:32;;;;;;;;;;;;;;;26.50;37.26;95615.09;5010109;28;7604;-57
2024/01/28 07:45:09;;;;;;;;;;;;;;;26.49;37.83;95610.84;5020343;28;9380;-56
2024/01/28 07:47:46;;;;;;;;;;;;;;;26.51;37.45;95611.13;4993654;28;7330;-57
2024/01/28 07:50:26;;;;;;;;;;;;;;;26.53;37.60;95611.38;5006238;28;7476;-57
2024/01/28 07:52:52;;;;;;;;;;;;;;;26.54;37.58;95613.66;5002653;28;8821;-55
2024/01/28 07:55:38;;;;;;;;;;;;;;;26.57;38.00;95620.97;5027924;28;7277;-56
2024/01/28 07:58:05;;;;;;;;;;;;;;;26.57;37.81;95620.97;5009290;28;7205;-56
2024/01/28 08:00:31;;;;;;;;;;;;;;;26.59;37.65;95625.97;5005273;28;7587;-56
2024/01/28 08:02:57;;;;;;;;;;;;;;;26.57;37.86;95623.72;4992803;28;9104;-56
2024/01/28 08:05:23;;;;;;;;;;;;;;;26.54;37.52;95621.91;4995244;28;7263;-56
2024/01/28 08:08:19;;;;;;;;;;;;;;;26.55;37.80;95619.94;5015126;28;9553;-56
2024/01/28 08:11:05;;;;;;;;;;;;;;;26.54;37.99;95626.69;4974926;28;7290;-56
2024/01/28 08:13:43;;;;;;;;;;;;;;;26.53;38.02;95625.19;4971907;28;7255;-57
2024/01/28 08:16:18;;;;;;;;;;;;;;;26.51;37.90;95622.16;4978151;28;7138;-57
2024/01/28 08:18:44;;;;;;;;;;;;;;;26.52;38.06;95618.13;5004640;28;7272;-57
2024/01/28 08:21:11;;;;;;;;;;;;;;;26.53;37.90;95614.13;5004298;28;7652;-56
2024/01/28 08:23:57;;;;;;;;;;;;;;;26.57;38.75;95615.44;5032956;28;7238;-57
2024/01/28 08:26:23;;;;;;;;;;;;;;;26.58;38.46;95611.41;5035299;28;7264;-56
2024/01/28 08:28:50;;;;;;;;;;;;;;;26.60;38.26;95608.19;5013706;28;8983;-56
2024/01/28 08:31:25;;;;;;;;;;;;;;;26.62;37.76;95613.97;5009610;28;8832;-38
2024/01/28 08:33:50;;;;;;;;;;;;;;;26.60;38.37;95608.94;5009161;28;9121;-38
2024/01/28 08:36:16;;;;;;;;;;;;;;;26.59;38.06;95610.19;5009777;28;8611;-38
2024/01/28 08:38:42;;;;;;;;;;;;;;;26.57;38.21;95606.41;5014888;28;7621;-38
2024/01/28 08:41:37;;;;;;;;;;;;;;;26.60;38.19;95608.94;5004561;28;9107;-38
2024/01/28 08:44:05;;;;;;;;;;;;;;;26.60;38.49;95610.94;4977380;28;7494;-37
2024/01/28 08:47:07;;;;;;;;;;;;;;;26.60;37.86;95613.72;4994420;28;8765;-38
2024/01/28 08:49:35;;;;;;;;;;;;;;;26.59;38.59;95618.47;4944553;28;8092;-37
2024/01/28 08:52:02;;;;;;;;;;;;;;;26.59;37.79;95612.94;4939928;28;7169;-37
2024/01/28 08:54:34;;;;;;;;;;;;;;;26.62;38.16;95611.97;4950599;28;7231;-37
2024/01/28 08:57:00;;;;;;;;;;;;;;;26.61;37.51;95615.22;4952100;28;7670;-37
2024/01/28 08:59:27;;;;;;;;;;;;;;;26.62;37.49;95616.75;4944623;28;7977;-38
2024/01/28 09:01:54;;;;;;;;;;;;;;;26.63;37.79;95624.53;4963215;28;9015;-37
2024/01/28 09:04:20;;;;;;;;;;;;;;;26.64;37.51;95619.75;4953934;28;9208;-38
2024/01/28 09:06:56;;;;;;;;;;;;;;;26.61;37.08;95621.50;4927555;28;9103;-38
2024/01/28 09:09:22;;;;;;;;;;;;;;;26.60;37.27;95622.72;4959357;28;7239;-38
2024/01/28 09:11:59;;;;;;;;;;;;;;;26.62;37.22;95628.50;4954301;28;6883;-38
2024/01/28 09:14:28;;;;;;;;;;;;;;;26.62;36.40;95631.28;4938904;28;7299;-38
2024/01/28 09:16:54;;;;;;;;;;;;;;;26.63;37.05;95621.00;4955791;28;7112;-38
2024/01/28 09:19:20;;;;;;;;;;;;;;;26.62;36.91;95627.78;4963943;28;7255;-38
2024/01/28 09:21:49;;;;;;;;;;;;;;;26.62;36.54;95633.28;4985142;28;7373;-38
2024/01/28 09:24:20;;;;;;;;;;;;;;;26.55;35.31;95628.97;5010421;28;7072;-38
2024/01/28 09:26:48;;;;;;;;;;;;;;;26.57;35.84;95634.00;5049337;28;8187;-38
2024/01/28 09:29:22;;;;;;;;;;;;;;;26.56;35.25;95635.22;5058542;28;9194;-38
2024/01/28 09:32:05;;;;;;;;;;;;;;;26.57;35.28;95631.22;5063748;28;7657;-38
2024/01/28 09:34:33;;;;;;;;;;;;;;;26.51;34.91;95622.16;5048746;28;7232;-38
2024/01/28 09:37:01;;;;;;;;;;;;;;;26.54;35.73;95627.44;5066622;28;7244;-38
2024/01/28 09:39:29;;;;;;;;;;;;;;;26.53;34.89;95628.69;5039397;28;7525;-38
2024/01/28 09:42:16;;;;;;;;;;;;;;;26.52;34.70;95629.16;5060384;28;8964;-40
2024/01/28 09:45:28;;;;;;;;;;;;;;;26.55;34.69;95628.22;5077586;28;9041;-40
2024/01/28 09:47:56;;;;;;;;;;;;;;;26.55;34.48;95639.25;5038492;28;7592;-39
2024/01/28 09:50:22;;;;;;;;;;;;;;;26.56;34.48;95635.22;5046806;28;7192;-40
2024/01/28 09:52:49;;;;;;;;;;;;;;;26.55;34.52;95640.00;5021002;28;7028;-40
2024/01/28 09:55:15;;;;;;;;;;;;;;;26.56;35.16;95641.50;5055955;28;7101;-40
2024/01/28 09:57:45;;;;;;;;;;;;;;;26.57;34.67;95642.28;5037029;28;7157;-40
2024/01/28 10:00:13;;;;;;;;;;;;;;;26.58;35.15;95649.28;5046421;28;9775;-40
2024/01/28 10:02:40;;;;;;;;;;;;;;;26.57;35.28;95645.03;5029739;28;6903;-40
2024/01/28 10:05:10;;;;;;;;;;;;;;;26.56;35.49;95647.03;5029399;28;7090;-41
2024/01/28 10:07:47;;;;;;;;;;;;;;;26.57;35.55;95645.03;5032148;28;9188;-40
2024/01/28 10:10:19;;;;;;;;;;;;;;;26.58;35.41;95652.03;5023503;28;9165;-41
2024/01/28 10:12:47;;;;;;;;;;;;;;;26.57;35.83;95645.78;5029917;28;7905;-38
2024/01/28 10:15:20;;;;;;;;;;;;;;;26.58;35.88;95644.53;5044325;28;9904;-39
2024/01/28 10:17:48;;;;;;;;;;;;;;;26.57;35.41;95643.03;5061053;28;9097;-39
2024/01/28 10:20:20;;;;;;;;;;;;;;;26.58;35.70;95639.00;5024130;28;7612;-39
2024/01/28 10:22:49;;;;;;;;;;;;;;;26.58;35.95;95644.53;5028621;28;9563;-40
2024/01/28 10:25:17;;;;;;;;;;;;;;;26.57;35.41;95645.78;5048842;28;9713;-40
2024/01/28 10:27:48;;;;;;;;;;;;;;;26.57;35.55;95642.28;5057545;28;8790;-40
2024/01/28 10:30:19;;;;;;;;;;;;;;;26.59;36.19;95637.03;5051903;28;7067;-39
2024/01/28 10:32:48;;;;;;;;;;;;;;;26.58;36.45;95636.25;5049677;28;6992;-39
2024/01/28 10:35:16;;;;;;;;;;;;;;;26.59;36.13;95631.50;5056760;28;7336;-39
2024/01/28 10:37:51;;;;;;;;;;;;;;;26.58;35.65;95633.50;5048484;28;9943;-39
2024/01/28 10:40:19;;;;;;;;;;;;;;;26.60;36.05;95625.50;5057440;28;9089;-39
2024/01/28 10:42:48;;;;;;;;;;;;;;;26.59;36.49;95621.22;5055426;28;7053;-39
2024/01/28 10:45:18;;;;;;;;;;;;;;;26.64;36.37;95622.53;5052989;28;7728;-39
2024/01/28 10:47:51;;;;;;;;;;;;;;;26.63;36.83;95624.53;5063972;28;9544;-40
2024/01/28 10:50:24;;;;;;;;;;;;;;;26.62;36.79;95622.25;5059544;28;7123;-57
2024/01/28 10:52:52;;;;;;;;;;;;;;;26.62;37.40;95616.75;5044455;28;7081;-57
2024/01/28 10:55:19;;;;;;;;;;;;;;;26.63;36.85;95609.97;5051831;28;9018;-56
2024/01/28 10:57:46;;;;;;;;;;;;;;;26.64;37.04;95608.72;5045272;28;7969;-56
2024/01/28 11:00:16;;;;;;;;;;;;;;;26.63;37.70;95607.97;5070444;28;9625;-57
2024/01/28 11:02:43;;;;;;;;;;;;;;;26.63;37.78;95601.69;5050955;28;7349;-57
2024/01/28 11:05:13;;;;;;;;;;;;;;;26.64;37.82;95592.91;5061748;28;9605;-56
2024/01/28 11:07:41;;;;;;;;;;;;;;;26.66;37.82;95590.44;5042133;28;7188;-56
2024/01/28 11:10:12;;;;;;;;;;;;;;;26.60;38.61;95592.38;5069446;28;7247;-57
2024/01/28 11:12:40;;;;;;;;;;;;;;;26.65;38.52;95590.91;5072831;28;7061;-57
2024/01/28 11:15:12;;;;;;;;;;;;;;;26.63;39.00;95583.13;5045897;28;7180;-57
2024/01/28 11:17:39;;;;;;;;;;;;;;;26.60;39.94;95592.38;5051481;28;9478;-57
2024/01/28 11:20:10;;;;;;;;;;;;;;;26.57;40.16;95582.31;5052614;28;8773;-57
2024/01/28 11:22:49;;;;;;;;;;;;;;;26.56;39.47;95588.31;5056738;28;9291;-57
2024/01/28 11:25:21;;;;;;;;;;;;;;;26.56;39.52;95583.56;5047956;28;9402;-57
2024/01/28 11:27:52;;;;;;;;;;;;;;;26.57;39.84;95579.56;5060353;28;7144;-56
2024/01/28 11:30:24;;;;;;;;;;;;;;;26.62;39.92;95572.59;5063216;28;7299;-56
2024/01/28 11:32:56;;;;;;;;;;;;;;;26.62;39.88;95569.81;5048142;28;7311;-56
2024/01/28 11:35:25;;;;;;;;;;;;;;;26.64;39.63;95570.09;5054338;28;7081;-56
2024/01/28 11:37:55;;;;;;;;;;;;;;;26.66;39.70;95562.06;5057043;28;7760;-56
2024/01/28 11:40:28;;;;;;;;;;;;;;;26.67;39.54;95571.84;5071352;28;7417;-56
2024/01/28 11:42:56;;;;;;;;;;;;;;;26.68;39.74;95565.09;5063254;28;6969;-56
2024/01/28 11:45:24;;;;;;;;;;;;;;;26.70;39.56;95560.59;5044802;28;7215;-56
2024/01/28 11:47:53;;;;;;;;;;;;;;;26.68;39.67;95560.34;5048405;28;7134;-56
2024/01/28 11:50:19;;;;;;;;;;;;;;;26.71;39.66;95556.59;5042573;28;7124;-56
2024/01/28 11:52:46;;;;;;;;;;;;;;;26.72;39.01;95554.59;5042943;28;7225;-56
2024/01/28 11:55:17;;;;;;;;;;;;;;;26.75;39.41;95551.63;5063529;28;9073;-55
2024/01/28 11:57:48;;;;;;;;;;;;;;;26.77;39.27;95538.09;5054350;28;9275;-56
2024/01/28 12:00:15;;;;;;;;;;;;;;;26.78;39.33;95530.56;5052492;28;9436;-38
2024/01/28 12:02:45;;;;;;;;;;;;;;;26.80;39.54;95530.84;5045674;28;9495;-38
2024/01/28 12:05:11;;;;;;;;;;;;;;;26.86;39.88;95537.16;5064330;28;7086;-38
2024/01/28 12:07:42;;;;;;;;;;;;;;;26.92;39.32;95534.44;5063166;28;9892;-38
2024/01/28 12:10:12;;;;;;;;;;;;;;;26.93;39.77;95533.94;5084491;28;8768;-38
2024/01/28 12:12:42;;;;;;;;;;;;;;;26.97;39.67;95537.22;5049878;28;9287;-38
2024/01/28 12:15:11;;;;;;;;;;;;;;;27.02;39.28;95530.97;5056796;28;9457;-39
2024/01/28 12:17:39;;;;;;;;;;;;;;;27.05;39.56;95523.72;5054045;28;6977;-38
2024/01/28 12:20:20;;;;;;;;;;;;;;;27.07;39.52;95519.22;5054730;28;9729;-38
2024/01/28 12:22:46;;;;;;;;;;;;;;;27.09;39.39;95527.75;5055383;28;7158;-37
2024/01/28 12:25:21;;;;;;;;;;;;;;;27.11;39.67;95510.69;5045937;28;9378;-38
2024/01/28 12:27:50;;;;;;;;;;;;;;;27.12;39.31;95517.75;5040361;28;7215;-38
2024/01/28 12:30:17;;;;;;;;;;;;;;;27.12;39.12;95512.22;5058081;28;9247;-38
2024/01/28 12:32:48;;;;;;;;;;;;;;;27.11;39.12;95511.47;5038337;28;6988;-38
2024/01/28 12:35:14;;;;;;;;;;;;;;;27.11;38.94;95508.69;5046595;28;9186;-37
2024/01/28 12:37:42;;;;;;;;;;;;;;;27.14;39.20;95507.72;5056655;28;9183;-37
2024/01/28 12:40:12;;;;;;;;;;;;;;;27.17;39.20;95511.47;5058221;28;9597;-38
2024/01/28 12:42:41;;;;;;;;;;;;;;;27.19;39.16;95497.91;5058278;28;8427;-38
2024/01/28 12:45:08;;;;;;;;;;;;;;;27.20;39.26;95502.97;5055454;28;9144;-38
2024/01/28 12:47:36;;;;;;;;;;;;;;;27.20;39.24;95494.69;5059741;28;9399;-38
2024/01/28 12:50:05;;;;;;;;;;;;;;;27.20;39.18;95500.22;5068791;28;9054;-38
2024/01/28 12:52:34;;;;;;;;;;;;;;;27.23;39.43;95506.75;5065510;28;7072;-38
2024/01/28 12:55:05;;;;;;;;;;;;;;;27.25;39.35;95499.47;5052479;28;6982;-38
2024/01/28 12:57:32;;;;;;;;;;;;;;;27.21;39.24;95501.72;5066065;28;7248;-38
2024/01/28 13:00:06;;;;;;;;;;;;;;;27.26;39.27;95498.22;5052875;28;7099;-38
2024/01/28 13:02:34;;;;;;;;;;;;;;;27.26;39.04;95491.94;5064892;28;7319;-38
2024/01/28 13:05:04;;;;;;;;;;;;;;;27.29;39.14;95486.19;5051561;28;9216;-39
2024/01/28 13:07:31;;;;;;;;;;;;;;;27.30;39.25;95484.16;5057448;28;9904;-38
2024/01/28 13:09:57;;;;;;;;;;;;;;;27.29;39.38;95486.19;5050104;28;8761;-38
2024/01/28 13:12:26;;;;;;;;;;;;;;;27.33;39.29;95485.94;5064832;28;9212;-39
2024/01/28 13:14:54;;;;;;;;;;;;;;;27.32;39.11;95479.66;5050158;28;7171;-39
2024/01/28 13:17:20;;;;;;;;;;;;;;;27.36;38.97;95479.47;5037269;28;9394;-39
2024/01/28 13:19:53;;;;;;;;;;;;;;;27.38;38.99;95480.47;5066155;28;7052;-39
2024/01/28 13:22:20;;;;;;;;;;;;;;;27.42;39.06;95483.75;5040038;28;7077;-39
2024/01/28 13:24:51;;;;;;;;;;;;;;;27.43;38.98;95479.72;5058752;28;9876;-39
2024/01/28 13:27:20;;;;;;;;;;;;;;;27.45;38.56;95477.22;5052416;28;7761;-42